sensor_id;sensor_type;location;lat;lon;timestamp;P1;durP1;ratioP1;P2;durP2;ratioP2
16308;SDS011;8263;48.880;9.276;2023-07-13T00:02:17;107.28;;;100.38;;
16308;SDS011;8263;48.880;9.276;2023-07-13T00:04:44;105.22;;;98.43;;
16308;SDS011;8263;48.880;9.276;2023-07-13T00:07:12;106.63;;;99.72;;
16308;SDS011;8263;48.880;9.276;2023-07-13T00:09:39;107.80;;;100.88;;
16308;SDS011;8263;48.880;9.276;2023-07-13T00:12:20;107.22;;;100.32;;
16308;SDS011;8263;48.880;9.276;2023-07-13T00:14:47;104.90;;;98.18;;
16308;SDS011;8263;48.880;9.276;2023-07-13T00:17:14;107.00;;;100.10;;
16308;SDS011;8263;48.880;9.276;2023-07-13T00:19:40;108.00;;;101.00;;
16308;SDS011;8263;48.880;9.276;2023-07-13T00:22:07;103.35;;;96.72;;
16308;SDS011;8263;48.880;9.276;2023-07-13T00:24:35;106.32;;;99.43;;
16308;SDS011;8263;48.880;9.276;2023-07-13T00:27:06;107.70;;;100.60;;
16308;SDS011;8263;48.880;9.276;2023-07-13T00:29:33;105.15;;;98.38;;
16308;SDS011;8263;48.880;9.276;2023-07-13T00:32:00;107.88;;;100.93;;
16308;SDS011;8263;48.880;9.276;2023-07-13T00:34:26;105.65;;;98.85;;
16308;SDS011;8263;48.880;9.276;2023-07-13T00:36:53;108.70;;;101.68;;
16308;SDS011;8263;48.880;9.276;2023-07-13T00:39:19;108.82;;;101.82;;
16308;SDS011;8263;48.880;9.276;2023-07-13T00:41:49;109.18;;;102.13;;
16308;SDS011;8263;48.880;9.276;2023-07-13T00:44:15;107.30;;;100.22;;
16308;SDS011;8263;48.880;9.276;2023-07-13T00:46:42;110.20;;;103.07;;
16308;SDS011;8263;48.880;9.276;2023-07-13T00:49:10;107.30;;;100.30;;
16308;SDS011;8263;48.880;9.276;2023-07-13T00:51:38;107.43;;;100.53;;
16308;SDS011;8263;48.880;9.276;2023-07-13T00:54:07;109.95;;;102.80;;
16308;SDS011;8263;48.880;9.276;2023-07-13T00:56:35;108.13;;;101.13;;
16308;SDS011;8263;48.880;9.276;2023-07-13T00:59:04;108.47;;;101.47;;
16308;SDS011;8263;48.880;9.276;2023-07-13T01:01:33;108.85;;;101.80;;
16308;SDS011;8263;48.880;9.276;2023-07-13T01:03:59;109.20;;;102.13;;
16308;SDS011;8263;48.880;9.276;2023-07-13T01:06:26;108.53;;;101.53;;
16308;SDS011;8263;48.880;9.276;2023-07-13T01:08:53;109.00;;;101.97;;
16308;SDS011;8263;48.880;9.276;2023-07-13T01:11:20;108.43;;;101.43;;
16308;SDS011;8263;48.880;9.276;2023-07-13T01:13:47;108.22;;;101.20;;
16308;SDS011;8263;48.880;9.276;2023-07-13T01:16:17;107.28;;;100.32;;
16308;SDS011;8263;48.880;9.276;2023-07-13T01:18:45;108.03;;;101.03;;
16308;SDS011;8263;48.880;9.276;2023-07-13T01:21:13;107.32;;;100.35;;
16308;SDS011;8263;48.880;9.276;2023-07-13T01:23:39;110.70;;;103.53;;
16308;SDS011;8263;48.880;9.276;2023-07-13T01:26:06;109.82;;;102.72;;
16308;SDS011;8263;48.880;9.276;2023-07-13T01:28:33;110.00;;;102.88;;
16308;SDS011;8263;48.880;9.276;2023-07-13T01:31:02;111.00;;;103.80;;
16308;SDS011;8263;48.880;9.276;2023-07-13T01:33:28;109.20;;;102.10;;
16308;SDS011;8263;48.880;9.276;2023-07-13T01:35:55;110.28;;;103.15;;
16308;SDS011;8263;48.880;9.276;2023-07-13T01:38:24;111.43;;;104.00;;
16308;SDS011;8263;48.880;9.276;2023-07-13T01:40:50;111.60;;;104.35;;
16308;SDS011;8263;48.880;9.276;2023-07-13T01:43:17;112.60;;;105.20;;
16308;SDS011;8263;48.880;9.276;2023-07-13T01:45:44;110.93;;;103.72;;
16308;SDS011;8263;48.880;9.276;2023-07-13T01:48:10;111.55;;;104.30;;
16308;SDS011;8263;48.880;9.276;2023-07-13T01:50:37;112.03;;;104.65;;
16308;SDS011;8263;48.880;9.276;2023-07-13T01:53:04;110.55;;;103.20;;
16308;SDS011;8263;48.880;9.276;2023-07-13T01:55:32;110.78;;;103.57;;
16308;SDS011;8263;48.880;9.276;2023-07-13T01:57:58;110.85;;;103.55;;
16308;SDS011;8263;48.880;9.276;2023-07-13T02:00:25;110.70;;;103.47;;
16308;SDS011;8263;48.880;9.276;2023-07-13T02:02:52;112.72;;;105.38;;
16308;SDS011;8263;48.880;9.276;2023-07-13T02:05:18;112.18;;;104.88;;
16308;SDS011;8263;48.880;9.276;2023-07-13T02:07:46;110.65;;;103.45;;
16308;SDS011;8263;48.880;9.276;2023-07-13T02:10:12;113.78;;;106.35;;
16308;SDS011;8263;48.880;9.276;2023-07-13T02:12:40;112.20;;;104.90;;
16308;SDS011;8263;48.880;9.276;2023-07-13T02:15:07;112.78;;;105.40;;
16308;SDS011;8263;48.880;9.276;2023-07-13T02:17:34;112.40;;;105.10;;
16308;SDS011;8263;48.880;9.276;2023-07-13T02:20:00;110.97;;;103.68;;
16308;SDS011;8263;48.880;9.276;2023-07-13T02:22:27;112.47;;;105.15;;
16308;SDS011;8263;48.880;9.276;2023-07-13T02:24:54;113.93;;;106.43;;
16308;SDS011;8263;48.880;9.276;2023-07-13T02:27:20;113.32;;;105.93;;
16308;SDS011;8263;48.880;9.276;2023-07-13T02:29:48;114.03;;;106.55;;
16308;SDS011;8263;48.880;9.276;2023-07-13T02:32:16;112.75;;;105.40;;
16308;SDS011;8263;48.880;9.276;2023-07-13T02:34:42;112.85;;;105.45;;
16308;SDS011;8263;48.880;9.276;2023-07-13T02:37:09;113.40;;;105.95;;
16308;SDS011;8263;48.880;9.276;2023-07-13T02:39:36;113.50;;;106.10;;
16308;SDS011;8263;48.880;9.276;2023-07-13T02:42:02;114.35;;;106.85;;
16308;SDS011;8263;48.880;9.276;2023-07-13T02:44:29;113.68;;;106.28;;
16308;SDS011;8263;48.880;9.276;2023-07-13T02:46:57;114.85;;;107.35;;
16308;SDS011;8263;48.880;9.276;2023-07-13T02:49:24;114.72;;;107.22;;
16308;SDS011;8263;48.880;9.276;2023-07-13T02:51:50;115.82;;;108.22;;
16308;SDS011;8263;48.880;9.276;2023-07-13T02:54:17;115.28;;;107.68;;
16308;SDS011;8263;48.880;9.276;2023-07-13T02:56:44;114.32;;;106.82;;
16308;SDS011;8263;48.880;9.276;2023-07-13T02:59:10;114.35;;;106.80;;
16308;SDS011;8263;48.880;9.276;2023-07-13T03:01:37;116.57;;;108.85;;
16308;SDS011;8263;48.880;9.276;2023-07-13T03:04:05;113.80;;;106.32;;
16308;SDS011;8263;48.880;9.276;2023-07-13T03:06:32;113.72;;;106.28;;
16308;SDS011;8263;48.880;9.276;2023-07-13T03:08:58;115.57;;;107.85;;
16308;SDS011;8263;48.880;9.276;2023-07-13T03:11:26;116.97;;;109.28;;
16308;SDS011;8263;48.880;9.276;2023-07-13T03:13:52;116.28;;;108.68;;
16308;SDS011;8263;48.880;9.276;2023-07-13T03:16:19;116.88;;;109.18;;
16308;SDS011;8263;48.880;9.276;2023-07-13T03:18:46;116.72;;;109.03;;
16308;SDS011;8263;48.880;9.276;2023-07-13T03:21:14;117.22;;;109.53;;
16308;SDS011;8263;48.880;9.276;2023-07-13T03:23:41;116.97;;;109.28;;
16308;SDS011;8263;48.880;9.276;2023-07-13T03:26:09;115.05;;;107.45;;
16308;SDS011;8263;48.880;9.276;2023-07-13T03:28:36;116.57;;;108.88;;
16308;SDS011;8263;48.880;9.276;2023-07-13T03:31:03;115.70;;;108.10;;
16308;SDS011;8263;48.880;9.276;2023-07-13T03:33:30;117.20;;;109.50;;
16308;SDS011;8263;48.880;9.276;2023-07-13T03:35:56;116.93;;;109.03;;
16308;SDS011;8263;48.880;9.276;2023-07-13T03:38:25;117.03;;;109.32;;
16308;SDS011;8263;48.880;9.276;2023-07-13T03:40:52;116.05;;;108.38;;
16308;SDS011;8263;48.880;9.276;2023-07-13T03:43:18;115.78;;;108.18;;
16308;SDS011;8263;48.880;9.276;2023-07-13T03:45:45;116.85;;;109.15;;
16308;SDS011;8263;48.880;9.276;2023-07-13T03:48:12;118.28;;;110.47;;
16308;SDS011;8263;48.880;9.276;2023-07-13T03:50:39;118.30;;;110.13;;
16308;SDS011;8263;48.880;9.276;2023-07-13T03:53:05;117.22;;;109.45;;
16308;SDS011;8263;48.880;9.276;2023-07-13T03:55:33;117.93;;;110.15;;
16308;SDS011;8263;48.880;9.276;2023-07-13T03:58:24;118.20;;;110.38;;
16308;SDS011;8263;48.880;9.276;2023-07-13T04:00:46;116.38;;;108.68;;
16308;SDS011;8263;48.880;9.276;2023-07-13T04:03:13;117.15;;;109.45;;
16308;SDS011;8263;48.880;9.276;2023-07-13T04:05:40;115.15;;;107.57;;
16308;SDS011;8263;48.880;9.276;2023-07-13T04:08:06;117.28;;;109.57;;
16308;SDS011;8263;48.880;9.276;2023-07-13T04:10:34;119.32;;;111.43;;
16308;SDS011;8263;48.880;9.276;2023-07-13T04:13:01;116.15;;;108.50;;
16308;SDS011;8263;48.880;9.276;2023-07-13T04:15:29;118.00;;;110.20;;
16308;SDS011;8263;48.880;9.276;2023-07-13T04:17:55;118.30;;;110.18;;
16308;SDS011;8263;48.880;9.276;2023-07-13T04:20:22;117.60;;;109.80;;
16308;SDS011;8263;48.880;9.276;2023-07-13T04:22:49;117.75;;;109.95;;
16308;SDS011;8263;48.880;9.276;2023-07-13T04:25:15;117.53;;;109.72;;
16308;SDS011;8263;48.880;9.276;2023-07-13T04:27:43;119.03;;;111.13;;
16308;SDS011;8263;48.880;9.276;2023-07-13T04:30:10;118.47;;;110.65;;
16308;SDS011;8263;48.880;9.276;2023-07-13T04:32:36;118.38;;;110.57;;
16308;SDS011;8263;48.880;9.276;2023-07-13T04:35:03;117.32;;;109.60;;
16308;SDS011;8263;48.880;9.276;2023-07-13T04:37:30;117.80;;;109.75;;
16308;SDS011;8263;48.880;9.276;2023-07-13T04:39:56;115.85;;;108.20;;
16308;SDS011;8263;48.880;9.276;2023-07-13T04:42:22;117.82;;;110.03;;
16308;SDS011;8263;48.880;9.276;2023-07-13T04:44:51;118.30;;;110.50;;
16308;SDS011;8263;48.880;9.276;2023-07-13T04:47:17;118.18;;;110.38;;
16308;SDS011;8263;48.880;9.276;2023-07-13T04:49:44;119.65;;;111.60;;
16308;SDS011;8263;48.880;9.276;2023-07-13T04:52:11;117.43;;;109.68;;
16308;SDS011;8263;48.880;9.276;2023-07-13T04:54:38;117.68;;;109.88;;
16308;SDS011;8263;48.880;9.276;2023-07-13T04:57:05;119.10;;;111.20;;
16308;SDS011;8263;48.880;9.276;2023-07-13T04:59:32;117.03;;;109.25;;
16308;SDS011;8263;48.880;9.276;2023-07-13T05:02:00;118.57;;;110.78;;
16308;SDS011;8263;48.880;9.276;2023-07-13T05:04:28;117.28;;;109.47;;
16308;SDS011;8263;48.880;9.276;2023-07-13T05:06:54;119.63;;;111.68;;
16308;SDS011;8263;48.880;9.276;2023-07-13T05:09:20;117.70;;;109.90;;
16308;SDS011;8263;48.880;9.276;2023-07-13T05:11:47;118.05;;;110.25;;
16308;SDS011;8263;48.880;9.276;2023-07-13T05:14:14;117.70;;;109.82;;
16308;SDS011;8263;48.880;9.276;2023-07-13T05:16:41;118.75;;;110.55;;
16308;SDS011;8263;48.880;9.276;2023-07-13T05:19:09;119.07;;;111.18;;
16308;SDS011;8263;48.880;9.276;2023-07-13T05:21:37;119.47;;;111.57;;
16308;SDS011;8263;48.880;9.276;2023-07-13T05:24:03;120.60;;;112.60;;
16308;SDS011;8263;48.880;9.276;2023-07-13T05:26:30;118.50;;;110.63;;
16308;SDS011;8263;48.880;9.276;2023-07-13T05:28:57;119.15;;;111.15;;
16308;SDS011;8263;48.880;9.276;2023-07-13T05:31:23;118.80;;;110.93;;
16308;SDS011;8263;48.880;9.276;2023-07-13T05:33:50;117.78;;;109.97;;
16308;SDS011;8263;48.880;9.276;2023-07-13T05:36:18;118.68;;;110.85;;
16308;SDS011;8263;48.880;9.276;2023-07-13T05:38:44;120.45;;;112.35;;
16308;SDS011;8263;48.880;9.276;2023-07-13T05:41:11;119.40;;;111.50;;
16308;SDS011;8263;48.880;9.276;2023-07-13T05:43:38;119.38;;;111.45;;
16308;SDS011;8263;48.880;9.276;2023-07-13T05:46:05;118.68;;;110.82;;
16308;SDS011;8263;48.880;9.276;2023-07-13T05:48:31;118.70;;;110.80;;
16308;SDS011;8263;48.880;9.276;2023-07-13T05:50:58;117.82;;;110.03;;
16308;SDS011;8263;48.880;9.276;2023-07-13T05:53:26;119.00;;;111.10;;
16308;SDS011;8263;48.880;9.276;2023-07-13T05:55:53;119.38;;;111.47;;
16308;SDS011;8263;48.880;9.276;2023-07-13T05:58:20;116.78;;;109.07;;
16308;SDS011;8263;48.880;9.276;2023-07-13T06:00:47;119.43;;;111.53;;
16308;SDS011;8263;48.880;9.276;2023-07-13T06:03:13;120.03;;;112.10;;
16308;SDS011;8263;48.880;9.276;2023-07-13T06:05:41;117.90;;;110.10;;
16308;SDS011;8263;48.880;9.276;2023-07-13T06:08:07;118.25;;;110.43;;
16308;SDS011;8263;48.880;9.276;2023-07-13T06:10:35;120.10;;;111.95;;
16308;SDS011;8263;48.880;9.276;2023-07-13T06:13:02;120.63;;;112.60;;
16308;SDS011;8263;48.880;9.276;2023-07-13T06:15:29;117.82;;;110.03;;
16308;SDS011;8263;48.880;9.276;2023-07-13T06:17:56;119.93;;;111.97;;
16308;SDS011;8263;48.880;9.276;2023-07-13T06:20:22;120.80;;;112.80;;
16308;SDS011;8263;48.880;9.276;2023-07-13T06:22:49;120.18;;;112.18;;
16308;SDS011;8263;48.880;9.276;2023-07-13T06:25:16;119.05;;;111.15;;
16308;SDS011;8263;48.880;9.276;2023-07-13T06:27:44;119.60;;;111.65;;
16308;SDS011;8263;48.880;9.276;2023-07-13T06:30:11;119.55;;;111.65;;
16308;SDS011;8263;48.880;9.276;2023-07-13T06:32:38;119.03;;;111.13;;
16308;SDS011;8263;48.880;9.276;2023-07-13T06:35:05;119.45;;;111.55;;
16308;SDS011;8263;48.880;9.276;2023-07-13T06:37:31;118.07;;;110.28;;
16308;SDS011;8263;48.880;9.276;2023-07-13T06:39:58;118.82;;;110.93;;
16308;SDS011;8263;48.880;9.276;2023-07-13T06:42:24;117.28;;;109.43;;
16308;SDS011;8263;48.880;9.276;2023-07-13T06:44:53;115.40;;;107.80;;
16308;SDS011;8263;48.880;9.276;2023-07-13T06:47:19;118.53;;;110.65;;
16308;SDS011;8263;48.880;9.276;2023-07-13T06:49:46;119.43;;;111.03;;
16308;SDS011;8263;48.880;9.276;2023-07-13T06:52:13;119.07;;;111.18;;
16308;SDS011;8263;48.880;9.276;2023-07-13T06:54:39;118.88;;;111.00;;
16308;SDS011;8263;48.880;9.276;2023-07-13T06:57:06;119.47;;;111.57;;
16308;SDS011;8263;48.880;9.276;2023-07-13T06:59:32;117.20;;;109.45;;
16308;SDS011;8263;48.880;9.276;2023-07-13T07:02:00;116.70;;;109.00;;
16308;SDS011;8263;48.880;9.276;2023-07-13T07:04:27;116.80;;;109.10;;
16308;SDS011;8263;48.880;9.276;2023-07-13T07:06:54;116.47;;;108.78;;
16308;SDS011;8263;48.880;9.276;2023-07-13T07:09:20;116.80;;;109.10;;
16308;SDS011;8263;48.880;9.276;2023-07-13T07:11:46;117.57;;;109.82;;
16308;SDS011;8263;48.880;9.276;2023-07-13T07:14:13;116.55;;;108.85;;
16308;SDS011;8263;48.880;9.276;2023-07-13T07:16:39;115.10;;;107.47;;
16308;SDS011;8263;48.880;9.276;2023-07-13T07:19:08;115.88;;;108.20;;
16308;SDS011;8263;48.880;9.276;2023-07-13T07:21:34;117.28;;;109.55;;
16308;SDS011;8263;48.880;9.276;2023-07-13T07:24:01;117.53;;;109.75;;
16308;SDS011;8263;48.880;9.276;2023-07-13T07:26:28;114.15;;;106.55;;
16308;SDS011;8263;48.880;9.276;2023-07-13T07:28:55;116.78;;;108.90;;
16308;SDS011;8263;48.880;9.276;2023-07-13T07:31:21;116.28;;;108.60;;
16308;SDS011;8263;48.880;9.276;2023-07-13T07:33:48;116.13;;;108.50;;
16308;SDS011;8263;48.880;9.276;2023-07-13T07:36:17;115.88;;;108.25;;
16308;SDS011;8263;48.880;9.276;2023-07-13T07:38:43;115.03;;;107.47;;
16308;SDS011;8263;48.880;9.276;2023-07-13T07:41:10;113.00;;;105.55;;
16308;SDS011;8263;48.880;9.276;2023-07-13T07:43:37;117.38;;;109.50;;
16308;SDS011;8263;48.880;9.276;2023-07-13T07:46:04;112.85;;;105.45;;
16308;SDS011;8263;48.880;9.276;2023-07-13T07:48:31;115.47;;;107.43;;
16308;SDS011;8263;48.880;9.276;2023-07-13T07:50:58;116.65;;;108.95;;
16308;SDS011;8263;48.880;9.276;2023-07-13T07:53:27;111.90;;;104.60;;
16308;SDS011;8263;48.880;9.276;2023-07-13T07:55:53;116.05;;;108.45;;
16308;SDS011;8263;48.880;9.276;2023-07-13T07:58:19;115.30;;;107.75;;
16308;SDS011;8263;48.880;9.276;2023-07-13T08:00:46;114.05;;;106.55;;
16308;SDS011;8263;48.880;9.276;2023-07-13T08:03:13;114.43;;;106.93;;
16308;SDS011;8263;48.880;9.276;2023-07-13T08:05:39;111.75;;;104.45;;
16308;SDS011;8263;48.880;9.276;2023-07-13T08:08:06;115.65;;;108.05;;
16308;SDS011;8263;48.880;9.276;2023-07-13T08:10:36;114.30;;;106.80;;
16308;SDS011;8263;48.880;9.276;2023-07-13T08:13:03;113.60;;;106.20;;
16308;SDS011;8263;48.880;9.276;2023-07-13T08:15:29;114.78;;;107.22;;
16308;SDS011;8263;48.880;9.276;2023-07-13T08:17:56;113.35;;;105.95;;
16308;SDS011;8263;48.880;9.276;2023-07-13T08:20:22;112.70;;;105.30;;
16308;SDS011;8263;48.880;9.276;2023-07-13T08:22:49;112.07;;;104.78;;
16308;SDS011;8263;48.880;9.276;2023-07-13T08:25:15;112.68;;;105.32;;
16308;SDS011;8263;48.880;9.276;2023-07-13T08:27:43;111.32;;;103.93;;
16308;SDS011;8263;48.880;9.276;2023-07-13T08:30:10;112.82;;;105.38;;
16308;SDS011;8263;48.880;9.276;2023-07-13T08:32:36;110.82;;;103.63;;
16308;SDS011;8263;48.880;9.276;2023-07-13T08:35:04;110.68;;;103.38;;
16308;SDS011;8263;48.880;9.276;2023-07-13T08:37:30;112.18;;;104.88;;
16308;SDS011;8263;48.880;9.276;2023-07-13T08:39:57;112.22;;;104.93;;
16308;SDS011;8263;48.880;9.276;2023-07-13T08:42:27;110.78;;;103.57;;
16308;SDS011;8263;48.880;9.276;2023-07-13T08:45:00;112.28;;;104.97;;
16308;SDS011;8263;48.880;9.276;2023-07-13T08:47:30;111.05;;;103.80;;
16308;SDS011;8263;48.880;9.276;2023-07-13T08:49:59;111.18;;;103.88;;
16308;SDS011;8263;48.880;9.276;2023-07-13T08:52:28;111.63;;;104.32;;
16308;SDS011;8263;48.880;9.276;2023-07-13T08:54:56;108.85;;;101.75;;
16308;SDS011;8263;48.880;9.276;2023-07-13T08:57:27;108.68;;;101.63;;
16308;SDS011;8263;48.880;9.276;2023-07-13T08:59:56;109.75;;;102.65;;
16308;SDS011;8263;48.880;9.276;2023-07-13T09:02:26;108.30;;;101.15;;
16308;SDS011;8263;48.880;9.276;2023-07-13T09:04:55;110.53;;;103.32;;
16308;SDS011;8263;48.880;9.276;2023-07-13T09:07:26;108.88;;;101.55;;
16308;SDS011;8263;48.880;9.276;2023-07-13T09:10:03;107.05;;;100.13;;
16308;SDS011;8263;48.880;9.276;2023-07-13T09:12:33;110.40;;;103.20;;
16308;SDS011;8263;48.880;9.276;2023-07-13T09:15:04;107.57;;;100.63;;
16308;SDS011;8263;48.880;9.276;2023-07-13T09:17:35;106.05;;;99.18;;
16308;SDS011;8263;48.880;9.276;2023-07-13T09:20:02;108.97;;;101.88;;
16308;SDS011;8263;48.880;9.276;2023-07-13T09:22:32;107.68;;;100.72;;
16308;SDS011;8263;48.880;9.276;2023-07-13T09:25:02;105.53;;;98.63;;
16308;SDS011;8263;48.880;9.276;2023-07-13T09:27:32;106.82;;;99.93;;
16308;SDS011;8263;48.880;9.276;2023-07-13T09:30:11;107.75;;;100.75;;
16308;SDS011;8263;48.880;9.276;2023-07-13T09:32:47;105.43;;;98.63;;
16308;SDS011;8263;48.880;9.276;2023-07-13T09:35:15;107.07;;;100.18;;
16308;SDS011;8263;48.880;9.276;2023-07-13T09:37:43;105.55;;;98.75;;
16308;SDS011;8263;48.880;9.276;2023-07-13T09:40:11;105.95;;;99.15;;
16308;SDS011;8263;48.880;9.276;2023-07-13T09:42:41;104.95;;;98.20;;
16308;SDS011;8263;48.880;9.276;2023-07-13T09:45:08;105.55;;;98.75;;
16308;SDS011;8263;48.880;9.276;2023-07-13T09:47:38;103.82;;;97.13;;
16308;SDS011;8263;48.880;9.276;2023-07-13T09:50:08;102.35;;;95.80;;
16308;SDS011;8263;48.880;9.276;2023-07-13T09:52:41;103.00;;;96.40;;
16308;SDS011;8263;48.880;9.276;2023-07-13T09:55:22;103.70;;;97.03;;
16308;SDS011;8263;48.880;9.276;2023-07-13T09:57:49;101.55;;;95.05;;
16308;SDS011;8263;48.880;9.276;2023-07-13T10:00:19;103.25;;;96.65;;
16308;SDS011;8263;48.880;9.276;2023-07-13T10:02:46;100.75;;;94.32;;
16308;SDS011;8263;48.880;9.276;2023-07-13T10:05:25;101.13;;;94.68;;
16308;SDS011;8263;48.880;9.276;2023-07-13T10:07:52;101.65;;;95.15;;
16308;SDS011;8263;48.880;9.276;2023-07-13T10:10:22;101.05;;;94.55;;
16308;SDS011;8263;48.880;9.276;2023-07-13T10:12:49;100.78;;;94.28;;
16308;SDS011;8263;48.880;9.276;2023-07-13T10:15:17;99.97;;;93.60;;
16308;SDS011;8263;48.880;9.276;2023-07-13T10:17:44;100.47;;;94.07;;
16308;SDS011;8263;48.880;9.276;2023-07-13T10:20:11;99.15;;;92.82;;
16308;SDS011;8263;48.880;9.276;2023-07-13T10:22:42;101.78;;;95.28;;
16308;SDS011;8263;48.880;9.276;2023-07-13T10:25:14;99.78;;;93.38;;
16308;SDS011;8263;48.880;9.276;2023-07-13T10:27:42;100.40;;;94.00;;
16308;SDS011;8263;48.880;9.276;2023-07-13T10:30:11;99.25;;;92.95;;
16308;SDS011;8263;48.880;9.276;2023-07-13T10:32:39;97.85;;;91.65;;
16308;SDS011;8263;48.880;9.276;2023-07-13T10:35:08;101.95;;;95.43;;
16308;SDS011;8263;48.880;9.276;2023-07-13T10:37:36;98.45;;;92.18;;
16308;SDS011;8263;48.880;9.276;2023-07-13T10:40:11;95.75;;;89.65;;
16308;SDS011;8263;48.880;9.276;2023-07-13T10:42:41;98.63;;;92.32;;
16308;SDS011;8263;48.880;9.276;2023-07-13T10:45:12;99.43;;;93.13;;
16308;SDS011;8263;48.880;9.276;2023-07-13T10:47:39;97.20;;;90.90;;
16308;SDS011;8263;48.880;9.276;2023-07-13T10:50:07;98.28;;;92.05;;
16308;SDS011;8263;48.880;9.276;2023-07-13T10:52:42;95.07;;;89.07;;
16308;SDS011;8263;48.880;9.276;2023-07-13T10:55:31;94.97;;;88.95;;
16308;SDS011;8263;48.880;9.276;2023-07-13T10:57:59;96.45;;;90.35;;
16308;SDS011;8263;48.880;9.276;2023-07-13T11:00:26;95.70;;;89.60;;
16308;SDS011;8263;48.880;9.276;2023-07-13T11:02:56;95.78;;;89.70;;
16308;SDS011;8263;48.880;9.276;2023-07-13T11:05:26;100.78;;;94.30;;
16308;SDS011;8263;48.880;9.276;2023-07-13T11:07:55;97.25;;;91.05;;
16308;SDS011;8263;48.880;9.276;2023-07-13T11:13:27;95.03;;;88.78;;
16308;SDS011;8263;48.880;9.276;2023-07-13T11:15:53;95.38;;;89.28;;
16308;SDS011;8263;48.880;9.276;2023-07-13T11:18:20;96.28;;;90.13;;
16308;SDS011;8263;48.880;9.276;2023-07-13T11:20:47;95.50;;;89.45;;
16308;SDS011;8263;48.880;9.276;2023-07-13T11:23:26;94.93;;;88.93;;
16308;SDS011;8263;48.880;9.276;2023-07-13T11:25:53;97.80;;;91.60;;
16308;SDS011;8263;48.880;9.276;2023-07-13T11:28:23;93.03;;;87.15;;
16308;SDS011;8263;48.880;9.276;2023-07-13T11:30:59;94.05;;;88.07;;
16308;SDS011;8263;48.880;9.276;2023-07-13T11:33:27;94.25;;;88.30;;
16308;SDS011;8263;48.880;9.276;2023-07-13T11:36:00;93.90;;;88.00;;
16308;SDS011;8263;48.880;9.276;2023-07-13T11:38:30;92.13;;;86.28;;
16308;SDS011;8263;48.880;9.276;2023-07-13T11:40:58;94.85;;;88.80;;
16308;SDS011;8263;48.880;9.276;2023-07-13T11:43:29;91.97;;;86.07;;
16308;SDS011;8263;48.880;9.276;2023-07-13T11:45:58;93.32;;;87.43;;
16308;SDS011;8263;48.880;9.276;2023-07-13T11:48:26;93.63;;;87.65;;
16308;SDS011;8263;48.880;9.276;2023-07-13T11:50:54;93.25;;;87.30;;
16308;SDS011;8263;48.880;9.276;2023-07-13T11:53:22;94.43;;;88.45;;
16308;SDS011;8263;48.880;9.276;2023-07-13T11:55:49;93.30;;;87.40;;
16308;SDS011;8263;48.880;9.276;2023-07-13T11:58:17;91.90;;;86.10;;
16308;SDS011;8263;48.880;9.276;2023-07-13T12:00:47;91.63;;;85.82;;
16308;SDS011;8263;48.880;9.276;2023-07-13T12:03:14;91.65;;;85.85;;
16308;SDS011;8263;48.880;9.276;2023-07-13T12:05:59;90.43;;;84.72;;
16308;SDS011;8263;48.880;9.276;2023-07-13T12:08:26;90.03;;;84.32;;
16308;SDS011;8263;48.880;9.276;2023-07-13T12:10:57;91.60;;;85.75;;
16308;SDS011;8263;48.880;9.276;2023-07-13T12:13:23;90.88;;;85.18;;
16308;SDS011;8263;48.880;9.276;2023-07-13T12:15:53;90.60;;;84.90;;
16308;SDS011;8263;48.880;9.276;2023-07-13T12:18:21;90.43;;;84.57;;
16308;SDS011;8263;48.880;9.276;2023-07-13T12:20:48;88.03;;;82.50;;
16308;SDS011;8263;48.880;9.276;2023-07-13T12:23:22;91.72;;;85.93;;
16308;SDS011;8263;48.880;9.276;2023-07-13T12:25:50;90.80;;;85.03;;
16308;SDS011;8263;48.880;9.276;2023-07-13T12:28:19;88.90;;;82.97;;
16308;SDS011;8263;48.880;9.276;2023-07-13T12:30:47;90.10;;;84.40;;
16308;SDS011;8263;48.880;9.276;2023-07-13T12:33:15;88.47;;;82.90;;
16308;SDS011;8263;48.880;9.276;2023-07-13T12:35:44;91.05;;;85.25;;
16308;SDS011;8263;48.880;9.276;2023-07-13T12:38:12;86.75;;;81.28;;
16308;SDS011;8263;48.880;9.276;2023-07-13T12:40:39;89.35;;;83.72;;
16308;SDS011;8263;48.880;9.276;2023-07-13T12:43:10;89.10;;;83.43;;
16308;SDS011;8263;48.880;9.276;2023-07-13T12:45:37;87.93;;;82.40;;
16308;SDS011;8263;48.880;9.276;2023-07-13T12:48:04;86.50;;;81.05;;
16308;SDS011;8263;48.880;9.276;2023-07-13T12:50:36;85.28;;;79.88;;
16308;SDS011;8263;48.880;9.276;2023-07-13T12:53:04;88.93;;;83.28;;
16308;SDS011;8263;48.880;9.276;2023-07-13T12:55:39;85.72;;;80.32;;
16308;SDS011;8263;48.880;9.276;2023-07-13T12:58:06;87.05;;;81.53;;
16308;SDS011;8263;48.880;9.276;2023-07-13T13:00:36;88.22;;;82.63;;
16308;SDS011;8263;48.880;9.276;2023-07-13T13:03:05;87.85;;;81.95;;
16308;SDS011;8263;48.880;9.276;2023-07-13T13:05:32;88.28;;;82.68;;
16308;SDS011;8263;48.880;9.276;2023-07-13T13:08:00;85.60;;;80.20;;
16308;SDS011;8263;48.880;9.276;2023-07-13T13:10:27;88.82;;;83.22;;
16308;SDS011;8263;48.880;9.276;2023-07-13T13:12:54;89.50;;;83.90;;
16308;SDS011;8263;48.880;9.276;2023-07-13T13:15:20;86.93;;;81.43;;
16308;SDS011;8263;48.880;9.276;2023-07-13T13:17:50;86.57;;;81.10;;
16308;SDS011;8263;48.880;9.276;2023-07-13T13:20:20;85.20;;;79.85;;
16308;SDS011;8263;48.880;9.276;2023-07-13T13:22:47;88.63;;;83.00;;
16308;SDS011;8263;48.880;9.276;2023-07-13T13:25:15;86.20;;;80.80;;
16308;SDS011;8263;48.880;9.276;2023-07-13T13:27:42;86.60;;;81.15;;
16308;SDS011;8263;48.880;9.276;2023-07-13T13:30:10;87.47;;;81.72;;
16308;SDS011;8263;48.880;9.276;2023-07-13T13:32:38;85.40;;;80.00;;
16308;SDS011;8263;48.880;9.276;2023-07-13T13:35:05;86.22;;;80.82;;
16308;SDS011;8263;48.880;9.276;2023-07-13T13:37:31;88.45;;;82.85;;
16308;SDS011;8263;48.880;9.276;2023-07-13T13:39:58;85.30;;;79.90;;
16308;SDS011;8263;48.880;9.276;2023-07-13T13:42:27;86.78;;;81.28;;
16308;SDS011;8263;48.880;9.276;2023-07-13T13:44:54;87.38;;;81.85;;
16308;SDS011;8263;48.880;9.276;2023-07-13T13:47:26;85.93;;;80.53;;
16308;SDS011;8263;48.880;9.276;2023-07-13T13:49:54;82.70;;;77.47;;
16308;SDS011;8263;48.880;9.276;2023-07-13T13:52:20;86.95;;;81.45;;
16308;SDS011;8263;48.880;9.276;2023-07-13T13:54:47;87.80;;;82.30;;
16308;SDS011;8263;48.880;9.276;2023-07-13T13:57:14;85.75;;;80.35;;
16308;SDS011;8263;48.880;9.276;2023-07-13T13:59:42;86.68;;;81.20;;
16308;SDS011;8263;48.880;9.276;2023-07-13T14:02:14;87.30;;;81.80;;
16308;SDS011;8263;48.880;9.276;2023-07-13T14:04:49;86.88;;;81.43;;
16308;SDS011;8263;48.880;9.276;2023-07-13T14:07:16;84.68;;;79.38;;
16308;SDS011;8263;48.880;9.276;2023-07-13T14:09:43;83.43;;;78.20;;
16308;SDS011;8263;48.880;9.276;2023-07-13T14:12:09;86.20;;;80.75;;
16308;SDS011;8263;48.880;9.276;2023-07-13T14:14:37;85.20;;;79.82;;
16308;SDS011;8263;48.880;9.276;2023-07-13T14:17:08;83.45;;;78.13;;
16308;SDS011;8263;48.880;9.276;2023-07-13T14:19:38;85.68;;;80.28;;
16308;SDS011;8263;48.880;9.276;2023-07-13T14:22:06;84.78;;;79.43;;
16308;SDS011;8263;48.880;9.276;2023-07-13T14:24:33;85.28;;;79.72;;